Aurora, KS (67417)

1:36 PM CST on February 24, 2017 (GMT -0600)
MKS023 | | Change Station

Elev 1482 ft 39.37 °N, 97.67 °W | Updated 48 minutes ago

Overcast
Overcast
25.0 °F
Feels Like 13 °F
N
14.0
Wind Variable Wind from NNW
Gusts 22.0 mph

Today
High -- | Low -- °F
--% Chance of Precip.
Yesterday
High -- | Low -- °F
Precip. -- in
Pressure 29.91 in
Visibility 2.0 miles
Clouds Mostly Cloudy 1200 ft
Overcast 1700 ft
Windchill 13 °F
Dew Point 21 °F
Humidity 84%
Rainfall 0.05 in
Snow Depth Not available.
7:09 AM 6:17 PM
Waning Crescent, 4% visible
SPECI KCNK 241933Z AUTO 34018G24KT 2SM -SN BR BKN012 OVC017 M03/M05 A2991 RMK AO2 P0000 T10331050
Pressure 29.91 in
Visibility 2.0 miles
Clouds Mostly Cloudy 1200 ft
Overcast 1700 ft
Windchill 13 °F
Dew Point 21 °F
Humidity 84%
Rainfall 0.05 in
Snow Depth Not available.
7:09 AM 6:17 PM
Waning Crescent, 4% visible
SPECI KCNK 241933Z AUTO 34018G24KT 2SM -SN BR BKN012 OVC017 M03/M05 A2991 RMK AO2 P0000 T10331050

Get Your Daily Forecast Email!

Thanks for signing up!

Be on the lookout for a verification email in your inbox.

You'll start receiving the daily forecast at 8 AM.

×

10-Day Weather Forecast

Almanac

Astronomy

Feb. 24, 2017 Rise Set
Actual Time
Civil Twilight
Nautical Twilight
Astronomical Twilight
Moon
Length of Visible Light
Length of Day
Tomorrow will be .
, % of the Moon is Illuminated

Today's Extremes

State Highs State Lows

Community

WunderPhotos

Upload Photos

1,962,540 photos uploaded!

WunderBlog® & News

Nearby

Air Quality

  Air Quality AQ Index Pollutant
Not available.

Snow Depth

Station Depth Elevation

Earthquake Activity

City Distance Mag. Time & Date
Minimum magnitude displayed is 2.5.

Coastal Water Temperatures

Place Temperature

Stations

Nearby Weather Stations

Station Location Temp. Windchill Dew Point Humidity Wind Precip. Elev Updated Type
                   

Watches & Warnings

There are currently no watches in effect.